Slidell, LA (70458)

9:26 PM CDT on August 04, 2015 (GMT -0500)
Michigan Ave. The Roy's | | Change Station
CLOSE
Current Station
Personal Weather Station
Location: Slidell, LA
Elevation: 39 ft
Nearby Weather Stations

Elev 39 ft 30.28 °N, 89.77 °W | Updated 16 seconds ago

Mostly Cloudy
Mostly Cloudy
82.4 °F
Feels Like 92 °F
N
0.0
Wind Variable Wind from North
Gusts 0.0 mph

Today
High -- | Low -- °F
--% Chance of Precip.
Yesterday
High -- | Low -- °F
Precip. -- in
6:19 AM 7:50 PM
Waning Gibbous, 72% visible
Pressure 29.96 in
Visibility 10.0 miles
Clouds Mostly Cloudy 1600 ft
Heat Index 92 °F
Dew Point 79 °F
Humidity 89%
Rainfall 0.00 in
Snow Depth Not available.
UV 0.0 out of 12
Pollen 3.10 out of 12
Air Quality Not available.
Flu Activity Not available.
METAR KASD 050153Z AUTO 06003KT 10SM BKN016 27/26 A2996 RMK AO2 SLP145 T02720261

More Conditions Fewer Conditions

Pressure 29.96 in
Visibility 10.0 miles
Clouds Mostly Cloudy 1600 ft
Heat Index 92 °F
Dew Point 79 °F
Humidity 89%
Rainfall 0.00 in
Snow Depth Not available.
UV 0.0 out of 12
Pollen 3.10 out of 12
Air Quality Not available.
Flu Activity Not available.
METAR KASD 050153Z AUTO 06003KT 10SM BKN016 27/26 A2996 RMK AO2 SLP145 T02720261

More Conditions Fewer Conditions

10-Day Weather Forecast

×

Almanac

Astronomy

Aug. 04, 2015 Rise Set
Actual Time
Civil Twilight
Nautical Twilight
Astronomical Twilight
Moon
Length of Visible Light
Length of Day
Tomorrow will be .
, % of the Moon is Illuminated

Today's Extremes

State Highs State Lows

Community

WunderPhotos

Upload Photos

1,844,084 photos uploaded!

WunderBlogs® & News

Nearby

Air Quality

  Air Quality AQ Index Pollutant
Not available.

Snow Depth

Station Depth Elevation

Earthquake Activity

City Distance Mag. Time & Date
Minimum magnitude displayed is 2.5.

Coastal Water Temperatures

Place Temperature

Stations

Nearby Weather Stations

Station Location Temp. Windchill Dew Point Humidity Wind Precip. Elev Updated Type